sensor_id;sensor_type;location;lat;lon;timestamp;P1;durP1;ratioP1;P2;durP2;ratioP2
57565;SDS011;63999;43.882;-0.310;2023-05-07T00:00:16;8.15;;;1.88;;
57565;SDS011;63999;43.882;-0.310;2023-05-07T00:02:44;6.15;;;1.73;;
57565;SDS011;63999;43.882;-0.310;2023-05-07T00:05:13;7.65;;;1.88;;
57565;SDS011;63999;43.882;-0.310;2023-05-07T00:07:40;7.93;;;1.58;;
57565;SDS011;63999;43.882;-0.310;2023-05-07T00:10:06;7.82;;;2.08;;
57565;SDS011;63999;43.882;-0.310;2023-05-07T00:12:32;6.22;;;1.60;;
57565;SDS011;63999;43.882;-0.310;2023-05-07T00:14:59;6.03;;;1.90;;
57565;SDS011;63999;43.882;-0.310;2023-05-07T00:17:26;6.20;;;1.70;;
57565;SDS011;63999;43.882;-0.310;2023-05-07T00:19:55;9.45;;;2.20;;
57565;SDS011;63999;43.882;-0.310;2023-05-07T00:22:21;8.50;;;1.90;;
57565;SDS011;63999;43.882;-0.310;2023-05-07T00:24:47;8.20;;;1.73;;
57565;SDS011;63999;43.882;-0.310;2023-05-07T00:27:13;11.63;;;1.90;;
57565;SDS011;63999;43.882;-0.310;2023-05-07T00:29:42;5.70;;;1.60;;
57565;SDS011;63999;43.882;-0.310;2023-05-07T00:32:08;9.43;;;2.10;;
57565;SDS011;63999;43.882;-0.310;2023-05-07T00:34:34;6.63;;;1.60;;
57565;SDS011;63999;43.882;-0.310;2023-05-07T00:37:05;7.57;;;1.90;;
57565;SDS011;63999;43.882;-0.310;2023-05-07T00:39:32;7.43;;;1.70;;
57565;SDS011;63999;43.882;-0.310;2023-05-07T00:41:59;8.23;;;1.92;;
57565;SDS011;63999;43.882;-0.310;2023-05-07T00:44:25;6.03;;;1.55;;
57565;SDS011;63999;43.882;-0.310;2023-05-07T00:46:52;8.00;;;1.90;;
57565;SDS011;63999;43.882;-0.310;2023-05-07T00:49:21;9.18;;;1.90;;
57565;SDS011;63999;43.882;-0.310;2023-05-07T00:51:52;10.65;;;2.13;;
57565;SDS011;63999;43.882;-0.310;2023-05-07T00:54:18;8.77;;;2.15;;
57565;SDS011;63999;43.882;-0.310;2023-05-07T00:56:45;8.57;;;1.83;;
57565;SDS011;63999;43.882;-0.310;2023-05-07T00:59:11;6.70;;;1.98;;
57565;SDS011;63999;43.882;-0.310;2023-05-07T01:01:37;9.82;;;1.92;;
57565;SDS011;63999;43.882;-0.310;2023-05-07T01:04:03;5.72;;;1.90;;
57565;SDS011;63999;43.882;-0.310;2023-05-07T01:06:29;6.22;;;1.92;;
57565;SDS011;63999;43.882;-0.310;2023-05-07T01:08:59;7.10;;;1.63;;
57565;SDS011;63999;43.882;-0.310;2023-05-07T01:11:26;8.30;;;1.73;;
57565;SDS011;63999;43.882;-0.310;2023-05-07T01:13:53;4.60;;;1.85;;
57565;SDS011;63999;43.882;-0.310;2023-05-07T01:16:25;8.60;;;1.90;;
57565;SDS011;63999;43.882;-0.310;2023-05-07T01:18:52;6.43;;;1.48;;
57565;SDS011;63999;43.882;-0.310;2023-05-07T01:21:18;7.25;;;1.67;;
57565;SDS011;63999;43.882;-0.310;2023-05-07T01:23:51;6.68;;;1.88;;
57565;SDS011;63999;43.882;-0.310;2023-05-07T01:26:20;8.38;;;1.92;;
57565;SDS011;63999;43.882;-0.310;2023-05-07T01:28:47;7.05;;;1.90;;
57565;SDS011;63999;43.882;-0.310;2023-05-07T01:31:15;7.70;;;1.90;;
57565;SDS011;63999;43.882;-0.310;2023-05-07T01:33:45;9.77;;;2.03;;
57565;SDS011;63999;43.882;-0.310;2023-05-07T01:36:13;7.30;;;1.90;;
57565;SDS011;63999;43.882;-0.310;2023-05-07T01:38:44;6.30;;;1.75;;
57565;SDS011;63999;43.882;-0.310;2023-05-07T01:41:11;7.38;;;1.83;;
57565;SDS011;63999;43.882;-0.310;2023-05-07T01:43:40;6.82;;;1.70;;
57565;SDS011;63999;43.882;-0.310;2023-05-07T01:46:10;7.50;;;1.73;;
57565;SDS011;63999;43.882;-0.310;2023-05-07T01:48:37;8.02;;;2.17;;
57565;SDS011;63999;43.882;-0.310;2023-05-07T01:51:03;7.57;;;1.98;;
57565;SDS011;63999;43.882;-0.310;2023-05-07T01:53:37;7.00;;;1.83;;
57565;SDS011;63999;43.882;-0.310;2023-05-07T01:56:08;4.82;;;1.42;;
57565;SDS011;63999;43.882;-0.310;2023-05-07T01:58:34;5.90;;;1.80;;
57565;SDS011;63999;43.882;-0.310;2023-05-07T02:01:00;7.53;;;2.03;;
57565;SDS011;63999;43.882;-0.310;2023-05-07T02:03:26;6.32;;;1.70;;
57565;SDS011;63999;43.882;-0.310;2023-05-07T02:05:52;8.27;;;2.03;;
57565;SDS011;63999;43.882;-0.310;2023-05-07T02:08:18;5.53;;;1.67;;
57565;SDS011;63999;43.882;-0.310;2023-05-07T02:10:44;4.93;;;1.70;;
57565;SDS011;63999;43.882;-0.310;2023-05-07T02:13:13;10.40;;;2.08;;
57565;SDS011;63999;43.882;-0.310;2023-05-07T02:15:39;6.20;;;2.10;;
57565;SDS011;63999;43.882;-0.310;2023-05-07T02:18:05;6.63;;;1.80;;
57565;SDS011;63999;43.882;-0.310;2023-05-07T02:20:33;7.70;;;1.85;;
57565;SDS011;63999;43.882;-0.310;2023-05-07T02:22:58;5.10;;;1.70;;
57565;SDS011;63999;43.882;-0.310;2023-05-07T02:25:27;7.32;;;2.13;;
57565;SDS011;63999;43.882;-0.310;2023-05-07T02:27:54;6.35;;;1.88;;
57565;SDS011;63999;43.882;-0.310;2023-05-07T02:30:20;7.57;;;1.50;;
57565;SDS011;63999;43.882;-0.310;2023-05-07T02:32:46;7.32;;;1.90;;
57565;SDS011;63999;43.882;-0.310;2023-05-07T02:35:12;9.73;;;2.15;;
57565;SDS011;63999;43.882;-0.310;2023-05-07T02:37:38;6.82;;;1.50;;
57565;SDS011;63999;43.882;-0.310;2023-05-07T02:40:04;5.85;;;1.98;;
57565;SDS011;63999;43.882;-0.310;2023-05-07T02:42:30;5.85;;;1.60;;
57565;SDS011;63999;43.882;-0.310;2023-05-07T02:44:56;7.72;;;1.88;;
57565;SDS011;63999;43.882;-0.310;2023-05-07T02:47:22;6.90;;;2.10;;
57565;SDS011;63999;43.882;-0.310;2023-05-07T02:49:48;4.43;;;1.77;;
57565;SDS011;63999;43.882;-0.310;2023-05-07T02:52:14;6.05;;;1.60;;
57565;SDS011;63999;43.882;-0.310;2023-05-07T02:54:40;6.85;;;2.03;;
57565;SDS011;63999;43.882;-0.310;2023-05-07T02:57:06;7.95;;;1.58;;
57565;SDS011;63999;43.882;-0.310;2023-05-07T02:59:35;7.20;;;2.00;;
57565;SDS011;63999;43.882;-0.310;2023-05-07T03:02:01;7.68;;;1.77;;
57565;SDS011;63999;43.882;-0.310;2023-05-07T03:04:27;7.32;;;1.95;;
57565;SDS011;63999;43.882;-0.310;2023-05-07T03:06:56;5.32;;;1.80;;
57565;SDS011;63999;43.882;-0.310;2023-05-07T03:09:22;5.57;;;1.80;;
57565;SDS011;63999;43.882;-0.310;2023-05-07T03:11:48;3.70;;;1.48;;
57565;SDS011;63999;43.882;-0.310;2023-05-07T03:14:14;5.95;;;2.05;;
57565;SDS011;63999;43.882;-0.310;2023-05-07T03:16:43;5.22;;;1.77;;
57565;SDS011;63999;43.882;-0.310;2023-05-07T03:19:09;6.97;;;2.03;;
57565;SDS011;63999;43.882;-0.310;2023-05-07T03:21:35;5.40;;;2.05;;
57565;SDS011;63999;43.882;-0.310;2023-05-07T03:24:04;6.20;;;2.10;;
57565;SDS011;63999;43.882;-0.310;2023-05-07T03:26:30;5.85;;;1.95;;
57565;SDS011;63999;43.882;-0.310;2023-05-07T03:28:59;8.02;;;2.30;;
57565;SDS011;63999;43.882;-0.310;2023-05-07T03:31:29;8.90;;;1.80;;
57565;SDS011;63999;43.882;-0.310;2023-05-07T03:33:56;3.83;;;1.65;;
57565;SDS011;63999;43.882;-0.310;2023-05-07T03:36:22;8.02;;;1.98;;
57565;SDS011;63999;43.882;-0.310;2023-05-07T03:38:49;6.07;;;1.75;;
57565;SDS011;63999;43.882;-0.310;2023-05-07T03:41:15;6.10;;;1.80;;
57565;SDS011;63999;43.882;-0.310;2023-05-07T03:43:41;7.43;;;1.95;;
57565;SDS011;63999;43.882;-0.310;2023-05-07T03:46:07;5.45;;;1.60;;
57565;SDS011;63999;43.882;-0.310;2023-05-07T03:48:34;12.35;;;1.90;;
57565;SDS011;63999;43.882;-0.310;2023-05-07T03:51:00;6.82;;;2.15;;
57565;SDS011;63999;43.882;-0.310;2023-05-07T03:53:26;6.55;;;1.80;;
57565;SDS011;63999;43.882;-0.310;2023-05-07T03:55:53;6.95;;;2.05;;
57565;SDS011;63999;43.882;-0.310;2023-05-07T03:58:19;6.43;;;2.17;;
57565;SDS011;63999;43.882;-0.310;2023-05-07T04:00:48;5.43;;;1.95;;
57565;SDS011;63999;43.882;-0.310;2023-05-07T04:03:15;7.72;;;2.17;;
57565;SDS011;63999;43.882;-0.310;2023-05-07T04:05:42;7.30;;;2.17;;
57565;SDS011;63999;43.882;-0.310;2023-05-07T04:08:08;5.85;;;1.92;;
57565;SDS011;63999;43.882;-0.310;2023-05-07T04:10:37;7.70;;;2.50;;
57565;SDS011;63999;43.882;-0.310;2023-05-07T04:13:05;7.85;;;2.53;;
57565;SDS011;63999;43.882;-0.310;2023-05-07T04:15:35;7.65;;;2.47;;
57565;SDS011;63999;43.882;-0.310;2023-05-07T04:18:04;8.95;;;2.95;;
57565;SDS011;63999;43.882;-0.310;2023-05-07T04:20:33;7.18;;;2.72;;
57565;SDS011;63999;43.882;-0.310;2023-05-07T04:23:02;9.23;;;2.65;;
57565;SDS011;63999;43.882;-0.310;2023-05-07T04:25:28;8.20;;;2.97;;
57565;SDS011;63999;43.882;-0.310;2023-05-07T04:27:57;5.82;;;3.10;;
57565;SDS011;63999;43.882;-0.310;2023-05-07T04:30:25;8.85;;;3.63;;
57565;SDS011;63999;43.882;-0.310;2023-05-07T04:32:51;7.05;;;2.72;;
57565;SDS011;63999;43.882;-0.310;2023-05-07T04:35:21;8.38;;;3.38;;
57565;SDS011;63999;43.882;-0.310;2023-05-07T04:37:47;8.68;;;3.15;;
57565;SDS011;63999;43.882;-0.310;2023-05-07T04:40:13;7.13;;;3.00;;
57565;SDS011;63999;43.882;-0.310;2023-05-07T04:42:39;8.48;;;2.90;;
57565;SDS011;63999;43.882;-0.310;2023-05-07T04:45:08;7.00;;;3.00;;
57565;SDS011;63999;43.882;-0.310;2023-05-07T04:47:35;7.97;;;3.15;;
57565;SDS011;63999;43.882;-0.310;2023-05-07T04:50:02;9.30;;;2.90;;
57565;SDS011;63999;43.882;-0.310;2023-05-07T04:52:28;6.22;;;2.85;;
57565;SDS011;63999;43.882;-0.310;2023-05-07T04:54:54;6.32;;;2.88;;
57565;SDS011;63999;43.882;-0.310;2023-05-07T04:57:19;6.32;;;2.80;;
57565;SDS011;63999;43.882;-0.310;2023-05-07T04:59:45;10.80;;;3.00;;
57565;SDS011;63999;43.882;-0.310;2023-05-07T05:02:15;12.13;;;3.00;;
57565;SDS011;63999;43.882;-0.310;2023-05-07T05:04:41;10.15;;;2.70;;
57565;SDS011;63999;43.882;-0.310;2023-05-07T05:07:07;9.15;;;2.72;;
57565;SDS011;63999;43.882;-0.310;2023-05-07T05:09:33;9.20;;;2.83;;
57565;SDS011;63999;43.882;-0.310;2023-05-07T05:12:01;8.75;;;2.55;;
57565;SDS011;63999;43.882;-0.310;2023-05-07T05:14:27;10.57;;;2.65;;
57565;SDS011;63999;43.882;-0.310;2023-05-07T05:16:57;7.15;;;2.58;;
57565;SDS011;63999;43.882;-0.310;2023-05-07T05:19:23;7.88;;;2.70;;
57565;SDS011;63999;43.882;-0.310;2023-05-07T05:21:51;10.77;;;2.92;;
57565;SDS011;63999;43.882;-0.310;2023-05-07T05:24:17;10.20;;;2.88;;
57565;SDS011;63999;43.882;-0.310;2023-05-07T05:26:46;8.98;;;3.05;;
57565;SDS011;63999;43.882;-0.310;2023-05-07T05:29:12;9.13;;;2.75;;
57565;SDS011;63999;43.882;-0.310;2023-05-07T05:31:41;11.90;;;2.83;;
57565;SDS011;63999;43.882;-0.310;2023-05-07T05:34:08;10.20;;;3.08;;
57565;SDS011;63999;43.882;-0.310;2023-05-07T05:36:37;10.35;;;2.95;;
57565;SDS011;63999;43.882;-0.310;2023-05-07T05:39:03;8.40;;;2.80;;
57565;SDS011;63999;43.882;-0.310;2023-05-07T05:41:29;10.77;;;2.90;;
57565;SDS011;63999;43.882;-0.310;2023-05-07T05:43:56;7.45;;;2.60;;
57565;SDS011;63999;43.882;-0.310;2023-05-07T05:46:22;9.65;;;3.03;;
57565;SDS011;63999;43.882;-0.310;2023-05-07T05:48:48;6.90;;;2.92;;
57565;SDS011;63999;43.882;-0.310;2023-05-07T05:51:14;13.93;;;2.97;;
57565;SDS011;63999;43.882;-0.310;2023-05-07T05:53:40;8.32;;;2.75;;
57565;SDS011;63999;43.882;-0.310;2023-05-07T05:56:06;12.23;;;3.55;;
57565;SDS011;63999;43.882;-0.310;2023-05-07T05:58:35;10.45;;;3.30;;
57565;SDS011;63999;43.882;-0.310;2023-05-07T06:01:01;11.57;;;3.15;;
57565;SDS011;63999;43.882;-0.310;2023-05-07T06:03:27;11.65;;;3.65;;
57565;SDS011;63999;43.882;-0.310;2023-05-07T06:05:53;13.90;;;3.25;;
57565;SDS011;63999;43.882;-0.310;2023-05-07T06:08:19;11.45;;;3.17;;
57565;SDS011;63999;43.882;-0.310;2023-05-07T06:10:45;12.77;;;3.38;;
57565;SDS011;63999;43.882;-0.310;2023-05-07T06:13:11;10.98;;;3.13;;
57565;SDS011;63999;43.882;-0.310;2023-05-07T06:15:37;11.52;;;3.70;;
57565;SDS011;63999;43.882;-0.310;2023-05-07T06:18:03;9.20;;;2.78;;
57565;SDS011;63999;43.882;-0.310;2023-05-07T06:20:33;13.75;;;3.40;;
57565;SDS011;63999;43.882;-0.310;2023-05-07T06:22:58;11.77;;;3.40;;
57565;SDS011;63999;43.882;-0.310;2023-05-07T06:25:25;11.13;;;3.13;;
57565;SDS011;63999;43.882;-0.310;2023-05-07T06:27:53;14.27;;;3.67;;
57565;SDS011;63999;43.882;-0.310;2023-05-07T06:30:30;14.10;;;3.28;;
57565;SDS011;63999;43.882;-0.310;2023-05-07T06:33:02;19.10;;;3.80;;
57565;SDS011;63999;43.882;-0.310;2023-05-07T06:35:32;12.73;;;3.45;;
57565;SDS011;63999;43.882;-0.310;2023-05-07T06:38:03;13.63;;;3.42;;
57565;SDS011;63999;43.882;-0.310;2023-05-07T06:40:52;10.23;;;3.05;;
57565;SDS011;63999;43.882;-0.310;2023-05-07T06:43:20;14.52;;;3.42;;
57565;SDS011;63999;43.882;-0.310;2023-05-07T06:45:46;11.45;;;3.63;;
57565;SDS011;63999;43.882;-0.310;2023-05-07T06:48:18;11.00;;;3.38;;
57565;SDS011;63999;43.882;-0.310;2023-05-07T06:50:46;13.40;;;3.50;;
57565;SDS011;63999;43.882;-0.310;2023-05-07T06:53:12;12.23;;;3.45;;
57565;SDS011;63999;43.882;-0.310;2023-05-07T06:55:47;13.00;;;3.10;;
57565;SDS011;63999;43.882;-0.310;2023-05-07T06:58:23;11.75;;;3.20;;
57565;SDS011;63999;43.882;-0.310;2023-05-07T07:00:48;14.35;;;3.95;;
57565;SDS011;63999;43.882;-0.310;2023-05-07T07:03:18;12.13;;;3.05;;
57565;SDS011;63999;43.882;-0.310;2023-05-07T07:05:44;11.30;;;3.42;;
57565;SDS011;63999;43.882;-0.310;2023-05-07T07:08:10;13.32;;;3.83;;
57565;SDS011;63999;43.882;-0.310;2023-05-07T07:10:36;15.48;;;3.90;;
57565;SDS011;63999;43.882;-0.310;2023-05-07T07:13:02;12.65;;;3.58;;
57565;SDS011;63999;43.882;-0.310;2023-05-07T07:15:28;14.15;;;3.30;;
57565;SDS011;63999;43.882;-0.310;2023-05-07T07:17:58;15.10;;;3.63;;
57565;SDS011;63999;43.882;-0.310;2023-05-07T07:20:24;15.65;;;3.75;;
57565;SDS011;63999;43.882;-0.310;2023-05-07T07:22:53;11.95;;;3.70;;
57565;SDS011;63999;43.882;-0.310;2023-05-07T07:25:21;15.18;;;3.70;;
57565;SDS011;63999;43.882;-0.310;2023-05-07T07:27:51;12.05;;;3.10;;
57565;SDS011;63999;43.882;-0.310;2023-05-07T07:30:19;10.63;;;3.00;;
57565;SDS011;63999;43.882;-0.310;2023-05-07T07:32:51;13.53;;;3.90;;
57565;SDS011;63999;43.882;-0.310;2023-05-07T07:35:25;8.98;;;2.72;;
57565;SDS011;63999;43.882;-0.310;2023-05-07T07:37:56;12.48;;;3.40;;
57565;SDS011;63999;43.882;-0.310;2023-05-07T07:40:28;11.25;;;2.67;;
57565;SDS011;63999;43.882;-0.310;2023-05-07T07:42:57;15.02;;;3.53;;
57565;SDS011;63999;43.882;-0.310;2023-05-07T07:47:57;15.85;;;3.80;;
57565;SDS011;63999;43.882;-0.310;2023-05-07T07:50:26;13.45;;;3.30;;
57565;SDS011;63999;43.882;-0.310;2023-05-07T07:52:52;9.02;;;2.90;;
57565;SDS011;63999;43.882;-0.310;2023-05-07T07:55:20;15.05;;;3.40;;
57565;SDS011;63999;43.882;-0.310;2023-05-07T07:57:51;12.73;;;3.30;;
57565;SDS011;63999;43.882;-0.310;2023-05-07T08:00:17;13.63;;;3.35;;
57565;SDS011;63999;43.882;-0.310;2023-05-07T08:02:46;15.02;;;3.65;;
57565;SDS011;63999;43.882;-0.310;2023-05-07T08:05:11;12.85;;;3.20;;
57565;SDS011;63999;43.882;-0.310;2023-05-07T08:07:37;10.93;;;3.20;;
57565;SDS011;63999;43.882;-0.310;2023-05-07T08:10:06;12.35;;;3.17;;
57565;SDS011;63999;43.882;-0.310;2023-05-07T08:12:32;10.00;;;2.80;;
57565;SDS011;63999;43.882;-0.310;2023-05-07T08:15:00;10.25;;;2.92;;
57565;SDS011;63999;43.882;-0.310;2023-05-07T08:17:31;12.25;;;3.40;;
57565;SDS011;63999;43.882;-0.310;2023-05-07T08:19:57;14.73;;;3.65;;
57565;SDS011;63999;43.882;-0.310;2023-05-07T08:22:23;12.10;;;2.88;;
57565;SDS011;63999;43.882;-0.310;2023-05-07T08:24:51;10.70;;;2.88;;
57565;SDS011;63999;43.882;-0.310;2023-05-07T08:27:18;10.50;;;3.17;;
57565;SDS011;63999;43.882;-0.310;2023-05-07T08:29:44;12.07;;;3.00;;
57565;SDS011;63999;43.882;-0.310;2023-05-07T08:32:12;9.38;;;2.75;;
57565;SDS011;63999;43.882;-0.310;2023-05-07T08:34:41;12.70;;;2.78;;
57565;SDS011;63999;43.882;-0.310;2023-05-07T08:37:07;9.75;;;2.88;;
57565;SDS011;63999;43.882;-0.310;2023-05-07T08:39:33;10.40;;;2.60;;
57565;SDS011;63999;43.882;-0.310;2023-05-07T08:41:59;8.13;;;2.53;;
57565;SDS011;63999;43.882;-0.310;2023-05-07T08:44:30;8.88;;;2.47;;
57565;SDS011;63999;43.882;-0.310;2023-05-07T08:46:59;9.13;;;3.17;;
57565;SDS011;63999;43.882;-0.310;2023-05-07T08:49:29;7.78;;;2.70;;
57565;SDS011;63999;43.882;-0.310;2023-05-07T08:51:55;7.88;;;2.42;;
57565;SDS011;63999;43.882;-0.310;2023-05-07T08:54:22;11.43;;;2.95;;
57565;SDS011;63999;43.882;-0.310;2023-05-07T08:56:48;6.53;;;2.05;;
57565;SDS011;63999;43.882;-0.310;2023-05-07T08:59:14;8.35;;;2.35;;
57565;SDS011;63999;43.882;-0.310;2023-05-07T09:01:40;9.20;;;3.03;;
57565;SDS011;63999;43.882;-0.310;2023-05-07T09:04:06;10.80;;;2.33;;
57565;SDS011;63999;43.882;-0.310;2023-05-07T09:06:32;6.68;;;2.53;;
57565;SDS011;63999;43.882;-0.310;2023-05-07T09:08:59;8.00;;;2.42;;
57565;SDS011;63999;43.882;-0.310;2023-05-07T09:11:30;12.52;;;2.75;;
57565;SDS011;63999;43.882;-0.310;2023-05-07T09:13:59;8.25;;;2.40;;
57565;SDS011;63999;43.882;-0.310;2023-05-07T09:16:28;7.60;;;2.20;;
57565;SDS011;63999;43.882;-0.310;2023-05-07T09:18:57;7.43;;;2.85;;
57565;SDS011;63999;43.882;-0.310;2023-05-07T09:21:24;8.38;;;2.50;;
57565;SDS011;63999;43.882;-0.310;2023-05-07T09:23:54;7.80;;;2.28;;
57565;SDS011;63999;43.882;-0.310;2023-05-07T09:26:21;7.60;;;2.47;;
57565;SDS011;63999;43.882;-0.310;2023-05-07T09:28:47;8.05;;;2.13;;
57565;SDS011;63999;43.882;-0.310;2023-05-07T09:31:13;7.72;;;2.40;;
57565;SDS011;63999;43.882;-0.310;2023-05-07T09:33:40;9.35;;;2.35;;
57565;SDS011;63999;43.882;-0.310;2023-05-07T09:36:07;7.40;;;2.33;;
57565;SDS011;63999;43.882;-0.310;2023-05-07T09:38:35;6.35;;;2.10;;
57565;SDS011;63999;43.882;-0.310;2023-05-07T09:41:03;8.25;;;2.30;;
57565;SDS011;63999;43.882;-0.310;2023-05-07T09:43:36;9.95;;;2.30;;
57565;SDS011;63999;43.882;-0.310;2023-05-07T09:46:03;6.15;;;2.00;;
57565;SDS011;63999;43.882;-0.310;2023-05-07T09:48:59;9.43;;;2.22;;
57565;SDS011;63999;43.882;-0.310;2023-05-07T09:51:29;10.57;;;2.20;;
57565;SDS011;63999;43.882;-0.310;2023-05-07T09:54:03;6.05;;;2.28;;
57565;SDS011;63999;43.882;-0.310;2023-05-07T09:56:30;4.55;;;1.92;;
57565;SDS011;63999;43.882;-0.310;2023-05-07T09:58:57;9.18;;;2.30;;
57565;SDS011;63999;43.882;-0.310;2023-05-07T10:01:25;6.75;;;2.22;;
57565;SDS011;63999;43.882;-0.310;2023-05-07T10:03:52;9.15;;;2.08;;
57565;SDS011;63999;43.882;-0.310;2023-05-07T10:06:21;8.73;;;2.15;;
57565;SDS011;63999;43.882;-0.310;2023-05-07T10:08:49;4.90;;;1.95;;
57565;SDS011;63999;43.882;-0.310;2023-05-07T10:11:17;8.48;;;2.22;;
57565;SDS011;63999;43.882;-0.310;2023-05-07T10:13:43;6.43;;;2.08;;
57565;SDS011;63999;43.882;-0.310;2023-05-07T10:16:09;11.70;;;2.25;;
57565;SDS011;63999;43.882;-0.310;2023-05-07T10:18:35;10.27;;;1.98;;
57565;SDS011;63999;43.882;-0.310;2023-05-07T10:21:07;4.65;;;1.73;;
57565;SDS011;63999;43.882;-0.310;2023-05-07T10:23:37;6.18;;;1.73;;
57565;SDS011;63999;43.882;-0.310;2023-05-07T10:26:05;6.35;;;1.83;;
57565;SDS011;63999;43.882;-0.310;2023-05-07T10:28:37;5.38;;;1.60;;
57565;SDS011;63999;43.882;-0.310;2023-05-07T10:33:56;6.72;;;1.90;;
57565;SDS011;63999;43.882;-0.310;2023-05-07T10:36:26;7.40;;;2.00;;
57565;SDS011;63999;43.882;-0.310;2023-05-07T10:38:53;9.52;;;2.00;;
57565;SDS011;63999;43.882;-0.310;2023-05-07T10:41:20;6.63;;;1.90;;
57565;SDS011;63999;43.882;-0.310;2023-05-07T10:43:46;8.43;;;1.85;;
57565;SDS011;63999;43.882;-0.310;2023-05-07T10:46:19;6.60;;;1.70;;
57565;SDS011;63999;43.882;-0.310;2023-05-07T10:51:34;7.07;;;2.30;;
57565;SDS011;63999;43.882;-0.310;2023-05-07T10:56:38;4.88;;;1.80;;
57565;SDS011;63999;43.882;-0.310;2023-05-07T11:01:49;9.48;;;1.75;;
57565;SDS011;63999;43.882;-0.310;2023-05-07T11:04:27;5.60;;;1.70;;
57565;SDS011;63999;43.882;-0.310;2023-05-07T11:15:08;5.70;;;1.85;;
57565;SDS011;63999;43.882;-0.310;2023-05-07T11:26:00;4.95;;;1.70;;
57565;SDS011;63999;43.882;-0.310;2023-05-07T11:28:41;5.75;;;1.75;;
57565;SDS011;63999;43.882;-0.310;2023-05-07T11:31:08;5.53;;;1.60;;
57565;SDS011;63999;43.882;-0.310;2023-05-07T11:33:36;4.85;;;1.77;;
57565;SDS011;63999;43.882;-0.310;2023-05-07T11:36:03;8.13;;;1.80;;
57565;SDS011;63999;43.882;-0.310;2023-05-07T11:38:34;7.35;;;1.70;;
57565;SDS011;63999;43.882;-0.310;2023-05-07T11:41:03;10.60;;;2.40;;
57565;SDS011;63999;43.882;-0.310;2023-05-07T11:43:34;5.35;;;1.42;;
57565;SDS011;63999;43.882;-0.310;2023-05-07T11:46:13;6.20;;;1.65;;
57565;SDS011;63999;43.882;-0.310;2023-05-07T11:48:39;6.75;;;1.80;;
57565;SDS011;63999;43.882;-0.310;2023-05-07T11:51:06;6.63;;;1.50;;
57565;SDS011;63999;43.882;-0.310;2023-05-07T11:53:38;6.90;;;1.58;;
57565;SDS011;63999;43.882;-0.310;2023-05-07T11:56:15;7.53;;;1.67;;
57565;SDS011;63999;43.882;-0.310;2023-05-07T11:58:45;8.13;;;2.00;;
57565;SDS011;63999;43.882;-0.310;2023-05-07T12:01:13;8.35;;;1.95;;
57565;SDS011;63999;43.882;-0.310;2023-05-07T12:03:45;7.15;;;1.52;;
57565;SDS011;63999;43.882;-0.310;2023-05-07T12:06:15;3.92;;;1.23;;
57565;SDS011;63999;43.882;-0.310;2023-05-07T12:08:45;5.97;;;1.67;;
57565;SDS011;63999;43.882;-0.310;2023-05-07T12:11:24;4.88;;;1.45;;
57565;SDS011;63999;43.882;-0.310;2023-05-07T12:16:25;7.55;;;2.05;;
57565;SDS011;63999;43.882;-0.310;2023-05-07T12:18:51;9.13;;;2.55;;
57565;SDS011;63999;43.882;-0.310;2023-05-07T12:21:19;6.43;;;1.80;;
57565;SDS011;63999;43.882;-0.310;2023-05-07T12:23:46;6.03;;;1.60;;
57565;SDS011;63999;43.882;-0.310;2023-05-07T12:26:15;7.63;;;1.88;;
57565;SDS011;63999;43.882;-0.310;2023-05-07T12:28:41;6.85;;;1.85;;
57565;SDS011;63999;43.882;-0.310;2023-05-07T12:31:07;4.38;;;1.48;;
57565;SDS011;63999;43.882;-0.310;2023-05-07T12:33:34;8.98;;;2.08;;
57565;SDS011;63999;43.882;-0.310;2023-05-07T12:36:02;7.13;;;2.03;;
57565;SDS011;63999;43.882;-0.310;2023-05-07T12:38:40;5.63;;;1.70;;
57565;SDS011;63999;43.882;-0.310;2023-05-07T12:41:09;9.38;;;2.20;;
57565;SDS011;63999;43.882;-0.310;2023-05-07T12:43:46;6.55;;;2.03;;
57565;SDS011;63999;43.882;-0.310;2023-05-07T12:46:15;9.50;;;1.90;;
57565;SDS011;63999;43.882;-0.310;2023-05-07T12:48:45;6.90;;;1.85;;
57565;SDS011;63999;43.882;-0.310;2023-05-07T12:51:11;6.90;;;1.83;;
57565;SDS011;63999;43.882;-0.310;2023-05-07T12:53:41;4.97;;;1.45;;
57565;SDS011;63999;43.882;-0.310;2023-05-07T12:56:07;6.53;;;1.67;;
57565;SDS011;63999;43.882;-0.310;2023-05-07T12:58:34;5.15;;;1.55;;
57565;SDS011;63999;43.882;-0.310;2023-05-07T13:01:03;8.02;;;2.00;;
57565;SDS011;63999;43.882;-0.310;2023-05-07T13:03:41;6.97;;;1.90;;
57565;SDS011;63999;43.882;-0.310;2023-05-07T13:06:15;6.20;;;1.75;;
57565;SDS011;63999;43.882;-0.310;2023-05-07T13:08:43;6.47;;;1.40;;
57565;SDS011;63999;43.882;-0.310;2023-05-07T13:11:14;8.32;;;1.95;;
57565;SDS011;63999;43.882;-0.310;2023-05-07T13:13:40;6.57;;;1.90;;
57565;SDS011;63999;43.882;-0.310;2023-05-07T13:18:38;7.78;;;1.70;;
57565;SDS011;63999;43.882;-0.310;2023-05-07T13:21:13;8.57;;;2.30;;
57565;SDS011;63999;43.882;-0.310;2023-05-07T13:23:39;6.65;;;2.08;;
57565;SDS011;63999;43.882;-0.310;2023-05-07T13:26:05;6.65;;;1.70;;
57565;SDS011;63999;43.882;-0.310;2023-05-07T13:28:31;7.47;;;2.03;;
57565;SDS011;63999;43.882;-0.310;2023-05-07T13:31:00;5.43;;;1.45;;
57565;SDS011;63999;43.882;-0.310;2023-05-07T13:33:29;4.88;;;1.60;;
57565;SDS011;63999;43.882;-0.310;2023-05-07T13:36:00;7.22;;;2.22;;
57565;SDS011;63999;43.882;-0.310;2023-05-07T13:38:28;10.02;;;2.28;;
57565;SDS011;63999;43.882;-0.310;2023-05-07T13:40:58;6.18;;;1.80;;
57565;SDS011;63999;43.882;-0.310;2023-05-07T13:43:26;7.22;;;1.83;;
57565;SDS011;63999;43.882;-0.310;2023-05-07T13:45:57;6.68;;;2.15;;
57565;SDS011;63999;43.882;-0.310;2023-05-07T13:48:29;9.38;;;2.33;;
57565;SDS011;63999;43.882;-0.310;2023-05-07T13:50:55;9.70;;;2.05;;
57565;SDS011;63999;43.882;-0.310;2023-05-07T13:53:21;8.55;;;1.75;;
57565;SDS011;63999;43.882;-0.310;2023-05-07T13:55:49;7.13;;;1.75;;
57565;SDS011;63999;43.882;-0.310;2023-05-07T13:58:15;4.97;;;1.73;;
57565;SDS011;63999;43.882;-0.310;2023-05-07T14:00:41;9.85;;;2.20;;
57565;SDS011;63999;43.882;-0.310;2023-05-07T14:03:07;5.47;;;1.52;;
57565;SDS011;63999;43.882;-0.310;2023-05-07T14:05:33;9.75;;;1.85;;
57565;SDS011;63999;43.882;-0.310;2023-05-07T14:08:00;6.25;;;1.60;;
57565;SDS011;63999;43.882;-0.310;2023-05-07T14:10:25;7.38;;;1.55;;
57565;SDS011;63999;43.882;-0.310;2023-05-07T14:12:51;9.35;;;1.77;;
57565;SDS011;63999;43.882;-0.310;2023-05-07T14:15:18;7.65;;;1.88;;
57565;SDS011;63999;43.882;-0.310;2023-05-07T14:17:44;6.25;;;1.80;;
57565;SDS011;63999;43.882;-0.310;2023-05-07T14:20:10;8.52;;;2.13;;
57565;SDS011;63999;43.882;-0.310;2023-05-07T14:22:37;10.02;;;1.73;;
57565;SDS011;63999;43.882;-0.310;2023-05-07T14:25:03;8.40;;;1.77;;
57565;SDS011;63999;43.882;-0.310;2023-05-07T14:27:29;11.02;;;2.25;;
57565;SDS011;63999;43.882;-0.310;2023-05-07T14:29:57;9.57;;;2.30;;
57565;SDS011;63999;43.882;-0.310;2023-05-07T14:32:23;6.65;;;1.65;;
57565;SDS011;63999;43.882;-0.310;2023-05-07T14:34:48;7.25;;;1.75;;
57565;SDS011;63999;43.882;-0.310;2023-05-07T14:37:15;8.63;;;2.33;;
57565;SDS011;63999;43.882;-0.310;2023-05-07T14:39:45;9.18;;;2.20;;
57565;SDS011;63999;43.882;-0.310;2023-05-07T14:42:11;16.55;;;2.80;;
57565;SDS011;63999;43.882;-0.310;2023-05-07T14:44:42;9.77;;;2.20;;
57565;SDS011;63999;43.882;-0.310;2023-05-07T14:47:10;6.72;;;1.73;;
57565;SDS011;63999;43.882;-0.310;2023-05-07T14:49:36;5.82;;;1.67;;
57565;SDS011;63999;43.882;-0.310;2023-05-07T14:52:08;8.90;;;1.70;;
57565;SDS011;63999;43.882;-0.310;2023-05-07T14:54:37;11.68;;;1.85;;
57565;SDS011;63999;43.882;-0.310;2023-05-07T14:57:05;6.82;;;1.88;;
57565;SDS011;63999;43.882;-0.310;2023-05-07T14:59:31;9.25;;;1.90;;
57565;SDS011;63999;43.882;-0.310;2023-05-07T15:01:59;6.85;;;1.77;;
57565;SDS011;63999;43.882;-0.310;2023-05-07T15:04:27;9.95;;;2.25;;
57565;SDS011;63999;43.882;-0.310;2023-05-07T15:06:54;4.97;;;1.58;;
57565;SDS011;63999;43.882;-0.310;2023-05-07T15:09:24;7.93;;;2.20;;